createdAt,value
2023-05-22T00:00:20.520Z,14.01
2023-05-22T00:02:48.621Z,13.95
2023-05-22T00:05:18.478Z,14.07
2023-05-22T00:07:46.538Z,14.14
2023-05-22T00:10:13.516Z,14.04
2023-05-22T00:12:40.708Z,14.10
2023-05-22T00:15:08.447Z,14.27
2023-05-22T00:17:35.634Z,14.31
2023-05-22T00:20:12.404Z,14.37
2023-05-22T00:22:39.564Z,14.21
2023-05-22T00:25:07.510Z,14.40
2023-05-22T00:27:34.655Z,14.35
2023-05-22T00:30:01.909Z,14.61
2023-05-22T00:32:33.146Z,14.67
2023-05-22T00:35:00.130Z,14.65
2023-05-22T00:37:27.397Z,14.67
2023-05-22T00:39:54.401Z,14.41
2023-05-22T00:42:21.485Z,14.58
2023-05-22T00:44:48.954Z,14.47
2023-05-22T00:47:16.027Z,14.46
2023-05-22T00:49:43.203Z,14.38
2023-05-22T00:52:13.087Z,14.20
2023-05-22T00:54:40.192Z,14.24
2023-05-22T00:57:07.328Z,14.17
2023-05-22T00:59:34.998Z,14.20
2023-05-22T01:02:03.199Z,14.18
2023-05-22T01:04:33.220Z,14.16
2023-05-22T01:07:02.918Z,14.17
2023-05-22T01:09:30.411Z,14.24
2023-05-22T01:12:06.444Z,14.22
2023-05-22T01:14:54.668Z,14.26
2023-05-22T01:17:52.543Z,14.18
2023-05-22T01:20:35.425Z,14.15
2023-05-22T01:23:24.418Z,14.11
2023-05-22T01:26:09.690Z,14.03
2023-05-22T01:29:22.393Z,14.09
2023-05-22T01:31:51.468Z,14.09
2023-05-22T01:34:21.055Z,14.09
2023-05-22T01:36:50.897Z,14.00
2023-05-22T01:39:19.553Z,13.91
2023-05-22T01:41:47.341Z,13.96
2023-05-22T01:44:14.836Z,13.92
2023-05-22T01:46:41.999Z,13.89
2023-05-22T01:49:09.244Z,13.70
2023-05-22T01:51:53.655Z,13.71
2023-05-22T01:54:39.274Z,13.46
2023-05-22T01:57:49.590Z,13.42
2023-05-22T02:00:19.915Z,13.19
2023-05-22T02:03:09.040Z,13.08
2023-05-22T02:05:39.487Z,13.00
2023-05-22T02:08:07.449Z,12.99
2023-05-22T02:10:36.466Z,12.95
2023-05-22T02:13:04.417Z,12.98
2023-05-22T02:15:31.851Z,12.85
2023-05-22T02:18:00.302Z,12.81
2023-05-22T02:20:27.635Z,12.79
2023-05-22T02:22:54.703Z,12.75
2023-05-22T02:25:21.618Z,12.53
2023-05-22T02:27:49.799Z,12.52
2023-05-22T02:30:17.039Z,12.48
2023-05-22T02:32:47.016Z,12.41
2023-05-22T02:35:14.057Z,12.24
2023-05-22T02:37:41.246Z,12.24
2023-05-22T02:40:10.165Z,12.25
2023-05-22T02:42:37.341Z,12.16
2023-05-22T02:45:05.916Z,12.13
2023-05-22T02:47:35.706Z,12.33
2023-05-22T02:50:03.725Z,12.22
2023-05-22T02:52:33.919Z,12.18
2023-05-22T02:55:01.325Z,12.16
2023-05-22T02:57:32.882Z,12.09
2023-05-22T03:00:00.016Z,12.22
2023-05-22T03:02:28.533Z,12.26
2023-05-22T03:04:59.169Z,12.35
2023-05-22T03:07:27.168Z,12.40
2023-05-22T03:09:54.326Z,12.12
2023-05-22T03:12:21.952Z,12.06
2023-05-22T03:14:49.043Z,12.23
2023-05-22T03:17:16.097Z,12.15
2023-05-22T03:19:43.070Z,12.18
2023-05-22T03:22:10.146Z,12.27
2023-05-22T03:24:37.352Z,12.30
2023-05-22T03:27:04.614Z,12.24
2023-05-22T03:29:42.105Z,12.14
2023-05-22T03:32:09.332Z,12.31
2023-05-22T03:34:36.883Z,12.40
2023-05-22T03:37:06.080Z,12.36
2023-05-22T03:39:33.045Z,12.37
2023-05-22T03:42:06.543Z,12.44
2023-05-22T03:44:33.614Z,12.55
2023-05-22T03:47:01.604Z,12.73
2023-05-22T03:49:30.784Z,12.82
2023-05-22T03:52:16.398Z,12.93
2023-05-22T03:54:43.618Z,13.07
2023-05-22T03:57:10.577Z,13.25
2023-05-22T03:59:37.621Z,13.29
2023-05-22T04:02:05.518Z,13.40
2023-05-22T04:04:38.413Z,13.48
2023-05-22T04:07:08.267Z,13.60
2023-05-22T04:09:36.464Z,13.58
2023-05-22T04:12:03.683Z,13.83
2023-05-22T04:14:30.802Z,13.90
2023-05-22T04:16:57.740Z,13.89
2023-05-22T04:19:24.970Z,14.13
2023-05-22T04:21:52.575Z,14.22
2023-05-22T04:24:19.682Z,14.16
2023-05-22T04:26:46.674Z,14.22
2023-05-22T04:29:14.619Z,14.47
2023-05-22T04:31:45.360Z,14.45
2023-05-22T04:34:15.295Z,14.68
2023-05-22T04:36:45.291Z,14.85
2023-05-22T04:39:14.037Z,15.03
2023-05-22T04:41:41.315Z,15.18
2023-05-22T04:44:08.413Z,15.37
2023-05-22T04:46:36.070Z,15.39
2023-05-22T04:49:03.468Z,15.53
2023-05-22T04:51:32.365Z,15.87
2023-05-22T04:53:59.383Z,16.10
2023-05-22T04:56:36.335Z,16.18
2023-05-22T04:59:09.113Z,16.17
2023-05-22T05:01:38.404Z,16.21
2023-05-22T05:04:05.877Z,16.26
2023-05-22T05:06:34.894Z,16.35
2023-05-22T05:09:06.259Z,16.46
2023-05-22T05:11:34.516Z,16.54
2023-05-22T05:14:01.900Z,16.64
2023-05-22T05:16:29.522Z,16.67
2023-05-22T05:18:56.659Z,16.54
2023-05-22T05:21:27.704Z,16.58
2023-05-22T05:23:56.136Z,16.38
2023-05-22T05:26:24.129Z,16.34
2023-05-22T05:28:51.570Z,16.38
2023-05-22T05:31:20.795Z,16.52
2023-05-22T05:34:10.625Z,16.68
2023-05-22T05:36:52.531Z,16.84
2023-05-22T05:39:21.439Z,16.91
2023-05-22T05:41:49.522Z,16.99
2023-05-22T05:44:16.619Z,17.14
2023-05-22T05:46:43.864Z,17.27
2023-05-22T05:49:12.078Z,17.13
2023-05-22T05:51:41.132Z,17.20
2023-05-22T05:54:08.565Z,17.16
2023-05-22T05:56:36.753Z,17.24
2023-05-22T05:59:04.603Z,16.95
2023-05-22T06:01:38.842Z,17.21
2023-05-22T06:04:12.644Z,17.40
2023-05-22T06:06:40.359Z,17.48
2023-05-22T06:09:10.988Z,17.55
2023-05-22T06:12:04.447Z,17.41
2023-05-22T06:14:31.521Z,17.46
2023-05-22T06:16:58.595Z,17.37
2023-05-22T06:19:26.160Z,17.61
2023-05-22T06:21:53.490Z,17.80
2023-05-22T06:24:21.444Z,17.80
2023-05-22T06:26:48.540Z,17.87
2023-05-22T06:29:15.518Z,17.97
2023-05-22T06:31:45.197Z,17.90
2023-05-22T06:34:13.885Z,18.13
2023-05-22T06:36:42.287Z,18.33
2023-05-22T06:39:09.788Z,18.18
2023-05-22T06:42:12.523Z,18.45
2023-05-22T06:44:58.269Z,18.58
2023-05-22T06:47:33.938Z,18.96
2023-05-22T06:50:01.058Z,18.88
2023-05-22T06:52:29.554Z,19.01
2023-05-22T06:55:04.305Z,18.97
2023-05-22T06:57:32.449Z,18.98
2023-05-22T07:00:01.145Z,19.36
2023-05-22T07:02:56.042Z,19.65
2023-05-22T07:05:31.470Z,19.93
2023-05-22T07:08:01.698Z,20.13
2023-05-22T07:10:29.587Z,20.49
2023-05-22T07:12:58.920Z,20.52
2023-05-22T07:15:26.152Z,20.45
2023-05-22T07:17:56.535Z,20.54
2023-05-22T07:20:25.754Z,20.94
2023-05-22T07:23:12.924Z,20.94
2023-05-22T07:25:42.961Z,21.05
2023-05-22T07:28:11.655Z,20.78
2023-05-22T07:30:50.352Z,20.86
2023-05-22T07:33:17.385Z,20.27
2023-05-22T07:35:46.323Z,20.02
2023-05-22T07:38:13.645Z,20.26
2023-05-22T07:40:47.163Z,20.46
2023-05-22T07:43:15.702Z,20.42
2023-05-22T07:45:44.272Z,20.67
2023-05-22T07:48:14.549Z,20.93
2023-05-22T07:50:45.365Z,21.06
2023-05-22T07:53:12.587Z,21.48
2023-05-22T07:55:42.446Z,21.31
2023-05-22T07:58:10.904Z,21.00
2023-05-22T08:00:41.864Z,21.00
2023-05-22T08:03:08.973Z,21.14
2023-05-22T08:05:36.107Z,21.05
2023-05-22T08:08:03.876Z,21.02
2023-05-22T08:10:46.533Z,21.19
2023-05-22T08:13:19.078Z,20.98
2023-05-22T08:15:46.213Z,20.90
2023-05-22T08:18:13.779Z,21.01
2023-05-22T08:20:41.054Z,20.83
2023-05-22T08:23:08.705Z,21.05
2023-05-22T08:25:35.663Z,21.12
2023-05-22T08:28:02.775Z,21.08
2023-05-22T08:30:29.703Z,20.52
2023-05-22T08:32:56.653Z,21.11
2023-05-22T08:35:23.795Z,21.23
2023-05-22T08:37:50.824Z,21.01
2023-05-22T08:40:20.404Z,21.49
2023-05-22T08:42:48.524Z,21.60
2023-05-22T08:45:16.305Z,21.68
2023-05-22T08:47:44.659Z,21.57
2023-05-22T08:50:12.504Z,21.73
2023-05-22T08:52:52.896Z,21.74
2023-05-22T08:55:20.118Z,22.05
2023-05-22T08:57:47.620Z,22.06
2023-05-22T09:00:15.668Z,22.25
2023-05-22T09:02:42.749Z,22.63
2023-05-22T09:05:10.194Z,22.62
2023-05-22T09:07:38.160Z,22.62
2023-05-22T09:10:07.284Z,22.90
2023-05-22T09:12:34.399Z,23.02
2023-05-22T09:15:11.655Z,22.81
2023-05-22T09:17:40.772Z,23.17
2023-05-22T09:20:10.481Z,23.02
2023-05-22T09:22:38.407Z,22.70
2023-05-22T09:25:07.026Z,23.10
2023-05-22T09:27:34.412Z,23.20
2023-05-22T09:30:01.553Z,22.84
2023-05-22T09:32:32.522Z,22.79
2023-05-22T09:35:06.949Z,22.84
2023-05-22T09:37:36.070Z,22.67
2023-05-22T09:40:07.422Z,22.63
2023-05-22T09:42:35.031Z,22.58
2023-05-22T09:45:07.164Z,22.63
2023-05-22T09:47:35.844Z,22.30
2023-05-22T09:50:06.508Z,22.06
2023-05-22T09:52:36.258Z,22.16
2023-05-22T09:55:07.390Z,21.80
2023-05-22T09:57:44.580Z,21.70
2023-05-22T10:00:17.354Z,21.88
2023-05-22T10:02:50.891Z,21.81
2023-05-22T10:05:22.146Z,21.39
2023-05-22T10:07:52.107Z,21.23
2023-05-22T10:10:22.992Z,21.03
2023-05-22T10:12:56.450Z,21.15
2023-05-22T10:15:23.956Z,21.42
2023-05-22T10:17:51.560Z,20.91
2023-05-22T10:20:19.498Z,20.87
2023-05-22T10:22:49.182Z,20.93
2023-05-22T10:25:18.497Z,20.83
2023-05-22T10:27:46.755Z,20.88
2023-05-22T10:30:35.073Z,20.28
2023-05-22T10:33:30.096Z,19.95
2023-05-22T10:35:59.024Z,19.98
2023-05-22T10:39:08.156Z,19.99
2023-05-22T10:41:35.337Z,19.63
2023-05-22T10:44:02.723Z,19.21
2023-05-22T10:46:34.116Z,19.50
2023-05-22T10:49:02.480Z,19.46
2023-05-22T10:51:29.534Z,19.55
2023-05-22T10:54:02.404Z,19.64
2023-05-22T10:56:36.036Z,19.87
2023-05-22T10:59:05.437Z,20.06
2023-05-22T11:01:37.885Z,20.38
2023-05-22T11:04:15.900Z,20.88
2023-05-22T11:07:18.883Z,21.38
2023-05-22T11:09:48.280Z,21.89
2023-05-22T11:12:28.800Z,22.24
2023-05-22T11:15:06.232Z,22.12
2023-05-22T11:17:46.640Z,22.48
2023-05-22T11:20:21.009Z,22.74
2023-05-22T11:23:00.522Z,22.96
2023-05-22T11:25:29.123Z,23.11
2023-05-22T11:27:56.711Z,23.07
2023-05-22T11:30:28.458Z,21.98
2023-05-22T11:32:58.055Z,21.19
2023-05-22T11:35:25.666Z,20.31
2023-05-22T11:37:54.046Z,19.64
2023-05-22T11:40:24.605Z,18.80
2023-05-22T11:42:53.097Z,18.13
2023-05-22T11:45:20.598Z,18.29
2023-05-22T11:47:48.824Z,18.10
2023-05-22T11:50:22.568Z,18.20
2023-05-22T11:52:56.500Z,18.18
2023-05-22T11:55:24.307Z,18.46
2023-05-22T11:57:51.404Z,18.41
2023-05-22T12:00:18.916Z,18.47
2023-05-22T12:02:48.779Z,18.47
2023-05-22T12:05:16.734Z,17.95
2023-05-22T12:07:44.626Z,17.89
2023-05-22T12:10:13.872Z,17.64
2023-05-22T12:12:41.325Z,17.70
2023-05-22T12:15:08.672Z,17.16
2023-05-22T12:17:40.065Z,16.89
2023-05-22T12:20:07.824Z,17.22
2023-05-22T12:22:41.132Z,17.04
2023-05-22T12:25:14.222Z,17.21
2023-05-22T12:27:41.266Z,17.56
2023-05-22T12:30:13.522Z,17.59
2023-05-22T12:32:40.915Z,17.86
2023-05-22T12:35:15.167Z,17.80
2023-05-22T12:37:51.634Z,17.97
2023-05-22T12:40:19.353Z,17.91
2023-05-22T12:42:48.691Z,18.00
2023-05-22T12:45:18.009Z,18.24
2023-05-22T12:47:46.126Z,18.01
2023-05-22T12:50:13.177Z,18.48
2023-05-22T12:52:40.289Z,18.41
2023-05-22T12:55:07.907Z,18.52
2023-05-22T12:57:34.803Z,18.60
2023-05-22T13:00:01.814Z,18.54
2023-05-22T13:02:32.940Z,18.94
2023-05-22T13:05:00.215Z,18.98
2023-05-22T13:07:27.217Z,19.24
2023-05-22T13:09:54.211Z,19.47
2023-05-22T13:12:21.253Z,19.49
2023-05-22T13:14:48.470Z,19.57
2023-05-22T13:17:15.439Z,19.54
2023-05-22T13:19:42.366Z,19.47
2023-05-22T13:22:09.474Z,19.74
2023-05-22T13:24:36.600Z,19.99
2023-05-22T13:27:04.023Z,20.17
2023-05-22T13:29:30.961Z,20.61
2023-05-22T13:31:57.983Z,20.78
2023-05-22T13:34:25.136Z,21.14
2023-05-22T13:36:52.424Z,21.38
2023-05-22T13:39:19.450Z,21.20
2023-05-22T13:41:46.676Z,21.42
2023-05-22T13:44:13.895Z,21.91
2023-05-22T13:46:41.222Z,21.92
2023-05-22T13:49:08.250Z,22.35
2023-05-22T13:51:35.736Z,22.45
2023-05-22T13:54:03.068Z,21.85
2023-05-22T13:56:30.096Z,22.31
2023-05-22T13:58:57.359Z,22.02
2023-05-22T14:04:08.894Z,22.41
2023-05-22T14:06:36.199Z,22.41
2023-05-22T14:09:06.053Z,22.41
2023-05-22T14:11:33.223Z,22.28
2023-05-22T14:14:00.198Z,22.63
2023-05-22T14:16:27.437Z,22.67
2023-05-22T14:18:54.566Z,22.55
2023-05-22T14:21:21.526Z,22.49
2023-05-22T14:23:48.571Z,22.54
2023-05-22T14:26:15.691Z,22.78
2023-05-22T14:28:43.113Z,22.44
2023-05-22T14:31:10.301Z,22.48
2023-05-22T14:33:37.361Z,22.06
2023-05-22T14:36:04.605Z,21.97
2023-05-22T14:38:35.459Z,21.77
2023-05-22T14:41:02.805Z,21.70
2023-05-22T14:43:30.173Z,21.73
2023-05-22T14:45:58.153Z,21.40
2023-05-22T14:48:26.589Z,21.21
2023-05-22T14:50:54.249Z,20.97
2023-05-22T14:53:22.485Z,21.17
2023-05-22T14:55:49.648Z,21.07
2023-05-22T14:58:16.917Z,20.55
2023-05-22T15:00:45.630Z,20.22
2023-05-22T15:03:13.479Z,19.94
2023-05-22T15:05:40.839Z,19.68
2023-05-22T15:08:08.033Z,19.46
2023-05-22T15:10:35.119Z,19.36
2023-05-22T15:13:02.118Z,19.40
2023-05-22T15:15:29.082Z,19.24
2023-05-22T15:17:56.480Z,19.26
2023-05-22T15:20:23.451Z,19.21
2023-05-22T15:22:50.449Z,19.05
2023-05-22T15:25:17.469Z,18.67
2023-05-22T15:27:44.644Z,18.63
2023-05-22T15:30:12.451Z,18.56
2023-05-22T15:32:39.660Z,18.48
2023-05-22T15:35:07.495Z,18.57
2023-05-22T15:37:36.373Z,18.74
2023-05-22T15:40:04.766Z,18.58
2023-05-22T15:42:34.351Z,18.78
2023-05-22T15:45:02.258Z,18.77
2023-05-22T15:47:32.484Z,18.57
2023-05-22T15:50:00.120Z,18.80
2023-05-22T15:52:27.229Z,18.69
2023-05-22T15:54:56.406Z,18.86
2023-05-22T15:57:26.641Z,18.95
2023-05-22T15:59:53.746Z,19.55
2023-05-22T16:02:21.019Z,19.81
2023-05-22T16:04:49.179Z,19.97
2023-05-22T16:07:17.202Z,19.94
2023-05-22T16:09:44.232Z,19.67
2023-05-22T16:12:11.376Z,18.89
2023-05-22T16:14:39.837Z,18.56
2023-05-22T16:17:07.385Z,18.61
2023-05-22T16:19:34.480Z,18.59
2023-05-22T16:22:02.031Z,18.58
2023-05-22T16:24:29.362Z,18.45
2023-05-22T16:26:58.145Z,18.19
2023-05-22T16:29:25.277Z,18.02
2023-05-22T16:31:52.409Z,18.36
2023-05-22T16:34:19.367Z,18.59
2023-05-22T16:36:46.598Z,18.35
2023-05-22T16:39:13.739Z,18.36
2023-05-22T16:41:40.972Z,17.96
2023-05-22T16:44:08.227Z,17.79
2023-05-22T16:46:35.413Z,17.69
2023-05-22T16:49:02.588Z,17.11
2023-05-22T16:51:29.830Z,16.91
2023-05-22T16:53:56.778Z,16.60
2023-05-22T16:56:23.891Z,16.50
2023-05-22T16:58:50.825Z,16.46
2023-05-22T17:01:18.193Z,16.23
2023-05-22T17:03:45.389Z,16.27
2023-05-22T17:06:12.980Z,16.47
2023-05-22T17:08:39.963Z,16.43
2023-05-22T17:11:06.940Z,16.33
2023-05-22T17:13:33.992Z,16.37
2023-05-22T17:16:01.190Z,16.32
2023-05-22T17:18:28.347Z,15.96
2023-05-22T17:20:57.763Z,15.89
2023-05-22T17:23:27.927Z,15.77
2023-05-22T17:25:55.290Z,15.73
2023-05-22T17:28:22.462Z,15.43
2023-05-22T17:30:49.410Z,15.10
2023-05-22T17:33:16.566Z,15.10
2023-05-22T17:35:43.671Z,15.14
2023-05-22T17:38:10.671Z,15.10
2023-05-22T17:40:44.838Z,15.08
2023-05-22T17:43:13.916Z,15.08
2023-05-22T17:45:41.823Z,14.87
2023-05-22T17:48:09.269Z,14.76
2023-05-22T17:50:36.427Z,14.72
2023-05-22T17:53:03.561Z,14.65
2023-05-22T17:55:30.651Z,14.53
2023-05-22T17:57:59.016Z,14.43
2023-05-22T18:00:26.105Z,14.43
2023-05-22T18:02:53.243Z,14.38
2023-05-22T18:05:20.513Z,14.29
2023-05-22T18:07:48.427Z,14.30
2023-05-22T18:10:15.555Z,14.23
2023-05-22T18:12:42.741Z,14.22
2023-05-22T18:15:12.027Z,14.19
2023-05-22T18:17:39.096Z,14.26
2023-05-22T18:20:08.176Z,14.31
2023-05-22T18:22:37.206Z,14.23
2023-05-22T18:25:05.388Z,14.28
2023-05-22T18:27:33.311Z,14.26
2023-05-22T18:30:00.349Z,14.34
2023-05-22T18:32:27.407Z,14.35
2023-05-22T18:34:54.661Z,14.37
2023-05-22T18:37:21.807Z,14.30
2023-05-22T18:39:48.938Z,14.16
2023-05-22T18:42:16.226Z,14.27
2023-05-22T18:44:43.225Z,14.37
2023-05-22T18:47:10.434Z,14.47
2023-05-22T18:49:38.672Z,14.47
2023-05-22T18:52:05.735Z,14.48
2023-05-22T18:54:32.745Z,14.43
2023-05-22T18:56:59.881Z,14.31
2023-05-22T18:59:27.106Z,14.19
2023-05-22T19:01:54.154Z,14.34
2023-05-22T19:04:21.195Z,14.34
2023-05-22T19:06:48.409Z,14.21
2023-05-22T19:09:15.630Z,14.28
2023-05-22T19:11:42.762Z,14.16
2023-05-22T19:14:09.744Z,14.23
2023-05-22T19:16:36.751Z,14.27
2023-05-22T19:19:04.112Z,14.29
2023-05-22T19:21:31.533Z,14.36
2023-05-22T19:23:58.408Z,14.45
2023-05-22T19:26:26.311Z,14.45
2023-05-22T19:28:53.899Z,14.43
2023-05-22T19:31:20.946Z,14.16
2023-05-22T19:33:48.055Z,14.15
2023-05-22T19:36:15.137Z,14.15
2023-05-22T19:38:42.233Z,14.19
2023-05-22T19:41:09.415Z,14.07
2023-05-22T19:43:36.456Z,14.09
2023-05-22T19:46:08.535Z,13.80
2023-05-22T19:48:36.256Z,13.88
2023-05-22T19:51:04.161Z,13.95
2023-05-22T19:53:34.444Z,13.87
2023-05-22T19:56:04.031Z,13.87
2023-05-22T19:58:31.149Z,13.78
2023-05-22T20:00:58.218Z,13.86
2023-05-22T20:03:26.409Z,13.80
2023-05-22T20:05:53.869Z,13.73
2023-05-22T20:08:25.423Z,13.77
2023-05-22T20:10:53.059Z,13.61
2023-05-22T20:13:20.144Z,13.66
2023-05-22T20:15:47.987Z,13.71
2023-05-22T20:18:15.241Z,13.66
2023-05-22T20:20:42.829Z,13.62
2023-05-22T20:23:09.931Z,13.60
2023-05-22T20:25:37.868Z,13.68
2023-05-22T20:28:05.239Z,13.58
2023-05-22T20:30:32.691Z,13.76
2023-05-22T20:32:59.753Z,13.82
2023-05-22T20:35:26.975Z,13.63
2023-05-22T20:37:53.881Z,13.66
2023-05-22T20:40:20.959Z,13.46
2023-05-22T20:42:48.082Z,13.64
2023-05-22T20:45:16.148Z,13.63
2023-05-22T20:47:43.985Z,13.51
2023-05-22T20:50:11.473Z,13.55
2023-05-22T20:52:38.572Z,13.52
2023-05-22T20:55:06.942Z,13.35
2023-05-22T20:57:34.708Z,13.35
2023-05-22T21:00:05.192Z,13.36
2023-05-22T21:02:36.773Z,13.27
2023-05-22T21:05:04.016Z,13.39
2023-05-22T21:07:31.133Z,13.37
2023-05-22T21:09:58.392Z,13.31
2023-05-22T21:12:25.487Z,13.43
2023-05-22T21:14:52.697Z,13.28
2023-05-22T21:17:19.716Z,13.27
2023-05-22T21:19:46.791Z,13.26
2023-05-22T21:22:13.678Z,13.37
2023-05-22T21:24:40.693Z,13.30
2023-05-22T21:27:07.664Z,13.14
2023-05-22T21:29:34.876Z,13.10
2023-05-22T21:32:01.878Z,12.94
2023-05-22T21:34:29.132Z,12.98
2023-05-22T21:36:56.077Z,13.07
2023-05-22T21:39:23.093Z,13.11
2023-05-22T21:41:50.465Z,13.12
2023-05-22T21:44:18.510Z,13.15
2023-05-22T21:46:45.502Z,13.03
2023-05-22T21:49:12.557Z,12.82
2023-05-22T21:51:39.743Z,12.88
2023-05-22T21:54:06.878Z,13.03
2023-05-22T21:56:33.854Z,13.06
2023-05-22T21:59:00.966Z,12.91
2023-05-22T22:01:28.015Z,12.69
2023-05-22T22:03:55.080Z,12.59
2023-05-22T22:06:22.046Z,12.45
2023-05-22T22:08:49.063Z,12.32
2023-05-22T22:11:16.137Z,12.39
2023-05-22T22:13:43.372Z,12.42
2023-05-22T22:16:10.392Z,12.35
2023-05-22T22:18:37.520Z,12.45
2023-05-22T22:21:04.680Z,12.34
2023-05-22T22:23:31.707Z,12.49
2023-05-22T22:25:58.713Z,12.56
2023-05-22T22:28:25.989Z,12.49
2023-05-22T22:30:55.181Z,12.44
2023-05-22T22:33:24.944Z,12.42
2023-05-22T22:35:52.815Z,12.47
2023-05-22T22:38:19.707Z,12.43
2023-05-22T22:40:46.783Z,12.41
2023-05-22T22:43:13.790Z,12.32
2023-05-22T22:45:41.017Z,12.43
2023-05-22T22:48:08.258Z,12.26
2023-05-22T22:50:35.276Z,12.30
2023-05-22T22:53:02.174Z,12.41
2023-05-22T22:55:29.404Z,12.41
2023-05-22T22:57:56.679Z,12.40
2023-05-22T23:00:23.741Z,12.29
2023-05-22T23:02:51.163Z,12.42
2023-05-22T23:05:20.566Z,12.48
2023-05-22T23:07:48.201Z,12.46
2023-05-22T23:10:16.660Z,12.46
2023-05-22T23:12:43.722Z,12.38
2023-05-22T23:15:13.336Z,12.36
2023-05-22T23:17:41.455Z,12.30
2023-05-22T23:20:09.048Z,12.44
2023-05-22T23:22:36.127Z,12.41
2023-05-22T23:25:03.436Z,12.39
2023-05-22T23:27:30.877Z,12.35
2023-05-22T23:29:58.321Z,12.16
2023-05-22T23:32:25.437Z,12.25
2023-05-22T23:34:52.391Z,12.02
2023-05-22T23:37:19.389Z,11.90
2023-05-22T23:39:46.285Z,12.04
2023-05-22T23:42:13.380Z,12.16
2023-05-22T23:44:40.297Z,12.27
2023-05-22T23:47:07.754Z,12.24
2023-05-22T23:49:34.863Z,12.03
2023-05-22T23:52:01.864Z,12.11
2023-05-22T23:54:28.836Z,12.07
2023-05-22T23:56:56.444Z,12.08
2023-05-22T23:59:23.434Z,12.00
